sensor_id;sensor_type;location;lat;lon;timestamp;temperature;humidity
43520;DHT22;46848;51.980;5.918;2024-03-17T00:00:31;9.70;70.60
43520;DHT22;46848;51.980;5.918;2024-03-17T00:02:57;9.70;70.70
43520;DHT22;46848;51.980;5.918;2024-03-17T00:05:22;9.60;70.60
43520;DHT22;46848;51.980;5.918;2024-03-17T00:07:48;9.70;70.80
43520;DHT22;46848;51.980;5.918;2024-03-17T00:10:14;9.70;70.80
43520;DHT22;46848;51.980;5.918;2024-03-17T00:12:40;9.70;70.80
43520;DHT22;46848;51.980;5.918;2024-03-17T00:15:07;9.70;70.90
43520;DHT22;46848;51.980;5.918;2024-03-17T00:17:33;9.70;70.90
43520;DHT22;46848;51.980;5.918;2024-03-17T00:20:03;9.70;70.80
43520;DHT22;46848;51.980;5.918;2024-03-17T00:22:36;9.70;70.90
43520;DHT22;46848;51.980;5.918;2024-03-17T00:25:08;9.70;70.70
43520;DHT22;46848;51.980;5.918;2024-03-17T00:27:34;9.70;70.80
43520;DHT22;46848;51.980;5.918;2024-03-17T00:30:02;9.70;70.80
43520;DHT22;46848;51.980;5.918;2024-03-17T00:32:28;9.70;70.80
43520;DHT22;46848;51.980;5.918;2024-03-17T00:34:53;9.70;70.80
43520;DHT22;46848;51.980;5.918;2024-03-17T00:37:19;9.70;70.90
43520;DHT22;46848;51.980;5.918;2024-03-17T00:39:44;9.70;70.90
43520;DHT22;46848;51.980;5.918;2024-03-17T00:42:10;9.60;70.90
43520;DHT22;46848;51.980;5.918;2024-03-17T00:44:35;9.70;71.10
43520;DHT22;46848;51.980;5.918;2024-03-17T00:47:01;9.60;71.10
43520;DHT22;46848;51.980;5.918;2024-03-17T00:49:26;9.70;71.20
43520;DHT22;46848;51.980;5.918;2024-03-17T00:51:52;9.70;71.20
43520;DHT22;46848;51.980;5.918;2024-03-17T00:54:18;9.70;71.10
43520;DHT22;46848;51.980;5.918;2024-03-17T00:56:43;9.70;71.10
43520;DHT22;46848;51.980;5.918;2024-03-17T00:59:09;9.60;71.10
43520;DHT22;46848;51.980;5.918;2024-03-17T01:01:34;9.60;71.10
43520;DHT22;46848;51.980;5.918;2024-03-17T01:04:00;9.50;71.20
43520;DHT22;46848;51.980;5.918;2024-03-17T01:06:25;9.50;71.50
43520;DHT22;46848;51.980;5.918;2024-03-17T01:08:51;9.50;71.60
43520;DHT22;46848;51.980;5.918;2024-03-17T01:11:17;9.50;71.70
43520;DHT22;46848;51.980;5.918;2024-03-17T01:13:45;9.50;71.70
43520;DHT22;46848;51.980;5.918;2024-03-17T01:16:12;9.50;71.60
43520;DHT22;46848;51.980;5.918;2024-03-17T01:18:37;9.50;71.70
43520;DHT22;46848;51.980;5.918;2024-03-17T01:21:05;9.50;71.70
43520;DHT22;46848;51.980;5.918;2024-03-17T01:23:31;9.50;71.70
43520;DHT22;46848;51.980;5.918;2024-03-17T01:25:56;9.50;71.80
43520;DHT22;46848;51.980;5.918;2024-03-17T01:28:22;9.50;71.90
43520;DHT22;46848;51.980;5.918;2024-03-17T01:30:47;9.50;71.80
43520;DHT22;46848;51.980;5.918;2024-03-17T01:33:13;9.50;71.90
43520;DHT22;46848;51.980;5.918;2024-03-17T01:35:39;9.50;71.90
43520;DHT22;46848;51.980;5.918;2024-03-17T01:38:04;9.50;71.90
43520;DHT22;46848;51.980;5.918;2024-03-17T01:40:30;9.50;71.90
43520;DHT22;46848;51.980;5.918;2024-03-17T01:42:55;9.50;71.90
43520;DHT22;46848;51.980;5.918;2024-03-17T01:45:31;9.50;72.00
43520;DHT22;46848;51.980;5.918;2024-03-17T01:47:58;9.50;72.10
43520;DHT22;46848;51.980;5.918;2024-03-17T01:50:26;9.50;72.00
43520;DHT22;46848;51.980;5.918;2024-03-17T01:52:56;9.50;72.00
43520;DHT22;46848;51.980;5.918;2024-03-17T01:55:22;9.50;72.00
43520;DHT22;46848;51.980;5.918;2024-03-17T01:57:49;9.50;72.10
43520;DHT22;46848;51.980;5.918;2024-03-17T02:00:15;9.50;72.10
43520;DHT22;46848;51.980;5.918;2024-03-17T02:02:41;9.50;72.10
43520;DHT22;46848;51.980;5.918;2024-03-17T02:05:07;9.50;72.10
43520;DHT22;46848;51.980;5.918;2024-03-17T02:07:33;9.50;72.20
43520;DHT22;46848;51.980;5.918;2024-03-17T02:09:59;9.50;72.20
43520;DHT22;46848;51.980;5.918;2024-03-17T02:12:25;9.50;72.20
43520;DHT22;46848;51.980;5.918;2024-03-17T02:14:51;9.40;72.30
43520;DHT22;46848;51.980;5.918;2024-03-17T02:17:17;9.40;72.30
43520;DHT22;46848;51.980;5.918;2024-03-17T02:19:42;9.40;72.40
43520;DHT22;46848;51.980;5.918;2024-03-17T02:22:14;9.50;72.40
43520;DHT22;46848;51.980;5.918;2024-03-17T02:24:40;9.50;72.40
43520;DHT22;46848;51.980;5.918;2024-03-17T02:27:06;9.40;72.30
43520;DHT22;46848;51.980;5.918;2024-03-17T02:29:32;9.40;72.30
43520;DHT22;46848;51.980;5.918;2024-03-17T02:31:57;9.40;72.40
43520;DHT22;46848;51.980;5.918;2024-03-17T02:34:23;9.40;72.60
43520;DHT22;46848;51.980;5.918;2024-03-17T02:36:49;9.40;72.50
43520;DHT22;46848;51.980;5.918;2024-03-17T02:39:14;9.40;72.40
43520;DHT22;46848;51.980;5.918;2024-03-17T02:41:58;9.30;72.40
43520;DHT22;46848;51.980;5.918;2024-03-17T02:44:24;9.30;72.50
43520;DHT22;46848;51.980;5.918;2024-03-17T02:46:50;9.40;72.60
43520;DHT22;46848;51.980;5.918;2024-03-17T02:49:15;9.30;72.60
43520;DHT22;46848;51.980;5.918;2024-03-17T02:51:43;9.30;72.60
43520;DHT22;46848;51.980;5.918;2024-03-17T02:54:09;9.30;72.70
43520;DHT22;46848;51.980;5.918;2024-03-17T02:56:35;9.30;72.70
43520;DHT22;46848;51.980;5.918;2024-03-17T02:59:00;9.20;72.60
43520;DHT22;46848;51.980;5.918;2024-03-17T03:01:26;9.20;72.70
43520;DHT22;46848;51.980;5.918;2024-03-17T03:03:52;9.20;73.00
43520;DHT22;46848;51.980;5.918;2024-03-17T03:06:17;9.10;73.00
43520;DHT22;46848;51.980;5.918;2024-03-17T03:08:45;9.10;73.00
43520;DHT22;46848;51.980;5.918;2024-03-17T03:11:15;9.10;73.10
43520;DHT22;46848;51.980;5.918;2024-03-17T03:13:42;9.10;73.20
43520;DHT22;46848;51.980;5.918;2024-03-17T03:16:10;9.10;73.20
43520;DHT22;46848;51.980;5.918;2024-03-17T03:18:37;9.10;73.30
43520;DHT22;46848;51.980;5.918;2024-03-17T03:21:03;9.10;73.30
43520;DHT22;46848;51.980;5.918;2024-03-17T03:23:29;9.10;73.40
43520;DHT22;46848;51.980;5.918;2024-03-17T03:25:59;9.10;73.40
43520;DHT22;46848;51.980;5.918;2024-03-17T03:28:26;9.10;73.50
43520;DHT22;46848;51.980;5.918;2024-03-17T03:30:52;9.10;73.70
43520;DHT22;46848;51.980;5.918;2024-03-17T03:33:21;9.00;73.70
43520;DHT22;46848;51.980;5.918;2024-03-17T03:35:47;9.00;73.80
43520;DHT22;46848;51.980;5.918;2024-03-17T03:38:14;9.00;73.80
43520;DHT22;46848;51.980;5.918;2024-03-17T03:40:43;9.10;74.00
43520;DHT22;46848;51.980;5.918;2024-03-17T03:43:09;9.10;73.90
43520;DHT22;46848;51.980;5.918;2024-03-17T03:45:35;9.10;74.00
43520;DHT22;46848;51.980;5.918;2024-03-17T03:48:01;9.10;74.00
43520;DHT22;46848;51.980;5.918;2024-03-17T03:50:28;9.10;73.90
43520;DHT22;46848;51.980;5.918;2024-03-17T03:52:54;9.20;74.00
43520;DHT22;46848;51.980;5.918;2024-03-17T03:55:20;9.10;73.90
43520;DHT22;46848;51.980;5.918;2024-03-17T03:57:45;9.20;74.00
43520;DHT22;46848;51.980;5.918;2024-03-17T04:00:16;9.20;74.00
43520;DHT22;46848;51.980;5.918;2024-03-17T04:02:47;9.20;74.10
43520;DHT22;46848;51.980;5.918;2024-03-17T04:05:13;9.20;74.00
43520;DHT22;46848;51.980;5.918;2024-03-17T04:07:39;9.20;74.00
43520;DHT22;46848;51.980;5.918;2024-03-17T04:10:05;9.20;74.10
43520;DHT22;46848;51.980;5.918;2024-03-17T04:12:31;9.20;74.20
43520;DHT22;46848;51.980;5.918;2024-03-17T04:14:58;9.20;74.20
43520;DHT22;46848;51.980;5.918;2024-03-17T04:17:24;9.20;74.40
43520;DHT22;46848;51.980;5.918;2024-03-17T04:19:50;9.20;74.40
43520;DHT22;46848;51.980;5.918;2024-03-17T04:22:16;9.20;74.50
43520;DHT22;46848;51.980;5.918;2024-03-17T04:24:43;9.20;74.50
43520;DHT22;46848;51.980;5.918;2024-03-17T04:27:09;9.20;74.50
43520;DHT22;46848;51.980;5.918;2024-03-17T04:29:34;9.20;74.60
43520;DHT22;46848;51.980;5.918;2024-03-17T04:32:00;9.20;74.60
43520;DHT22;46848;51.980;5.918;2024-03-17T04:34:29;9.20;74.50
43520;DHT22;46848;51.980;5.918;2024-03-17T04:36:54;9.20;74.60
43520;DHT22;46848;51.980;5.918;2024-03-17T04:39:20;9.20;74.70
43520;DHT22;46848;51.980;5.918;2024-03-17T04:41:47;9.10;74.70
43520;DHT22;46848;51.980;5.918;2024-03-17T04:44:13;9.20;74.80
43520;DHT22;46848;51.980;5.918;2024-03-17T04:46:39;9.20;74.80
43520;DHT22;46848;51.980;5.918;2024-03-17T04:49:04;9.20;74.80
43520;DHT22;46848;51.980;5.918;2024-03-17T04:51:30;9.20;74.70
43520;DHT22;46848;51.980;5.918;2024-03-17T04:53:58;9.30;74.80
43520;DHT22;46848;51.980;5.918;2024-03-17T04:56:24;9.20;74.70
43520;DHT22;46848;51.980;5.918;2024-03-17T04:58:50;9.30;74.80
43520;DHT22;46848;51.980;5.918;2024-03-17T05:01:15;9.20;74.90
43520;DHT22;46848;51.980;5.918;2024-03-17T05:03:41;9.20;74.90
43520;DHT22;46848;51.980;5.918;2024-03-17T05:06:06;9.20;74.90
43520;DHT22;46848;51.980;5.918;2024-03-17T05:08:33;9.20;74.90
43520;DHT22;46848;51.980;5.918;2024-03-17T05:11:00;9.20;74.80
43520;DHT22;46848;51.980;5.918;2024-03-17T05:13:27;9.20;74.90
43520;DHT22;46848;51.980;5.918;2024-03-17T05:15:53;9.10;75.00
43520;DHT22;46848;51.980;5.918;2024-03-17T05:18:19;9.10;75.10
43520;DHT22;46848;51.980;5.918;2024-03-17T05:20:46;9.10;75.20
43520;DHT22;46848;51.980;5.918;2024-03-17T05:23:14;9.10;75.30
43520;DHT22;46848;51.980;5.918;2024-03-17T05:25:40;9.10;75.40
43520;DHT22;46848;51.980;5.918;2024-03-17T05:28:05;9.10;75.40
43520;DHT22;46848;51.980;5.918;2024-03-17T05:30:31;9.10;75.30
43520;DHT22;46848;51.980;5.918;2024-03-17T05:32:57;9.10;75.20
43520;DHT22;46848;51.980;5.918;2024-03-17T05:35:22;9.10;75.30
43520;DHT22;46848;51.980;5.918;2024-03-17T05:37:51;9.10;75.30
43520;DHT22;46848;51.980;5.918;2024-03-17T05:40:16;9.10;75.40
43520;DHT22;46848;51.980;5.918;2024-03-17T05:42:42;9.10;75.50
43520;DHT22;46848;51.980;5.918;2024-03-17T05:45:09;9.10;75.80
43520;DHT22;46848;51.980;5.918;2024-03-17T05:47:37;9.00;75.70
43520;DHT22;46848;51.980;5.918;2024-03-17T05:50:03;9.00;75.70
43520;DHT22;46848;51.980;5.918;2024-03-17T05:52:29;9.00;75.70
43520;DHT22;46848;51.980;5.918;2024-03-17T05:54:54;9.10;75.80
43520;DHT22;46848;51.980;5.918;2024-03-17T05:57:21;9.00;75.70
43520;DHT22;46848;51.980;5.918;2024-03-17T05:59:48;9.10;75.90
43520;DHT22;46848;51.980;5.918;2024-03-17T06:02:13;9.10;75.90
43520;DHT22;46848;51.980;5.918;2024-03-17T06:04:40;9.00;76.50
43520;DHT22;46848;51.980;5.918;2024-03-17T06:07:06;9.10;76.10
43520;DHT22;46848;51.980;5.918;2024-03-17T06:09:31;9.00;76.40
43520;DHT22;46848;51.980;5.918;2024-03-17T06:11:57;9.00;76.50
43520;DHT22;46848;51.980;5.918;2024-03-17T06:14:23;9.00;76.50
43520;DHT22;46848;51.980;5.918;2024-03-17T06:16:48;9.00;76.50
43520;DHT22;46848;51.980;5.918;2024-03-17T06:19:14;9.00;76.50
43520;DHT22;46848;51.980;5.918;2024-03-17T06:21:40;9.00;76.60
43520;DHT22;46848;51.980;5.918;2024-03-17T06:24:06;9.00;76.50
43520;DHT22;46848;51.980;5.918;2024-03-17T06:26:32;9.10;76.50
43520;DHT22;46848;51.980;5.918;2024-03-17T06:29:00;9.10;76.60
43520;DHT22;46848;51.980;5.918;2024-03-17T06:31:26;9.20;76.60
43520;DHT22;46848;51.980;5.918;2024-03-17T06:33:51;9.30;76.50
43520;DHT22;46848;51.980;5.918;2024-03-17T06:36:17;9.30;76.50
43520;DHT22;46848;51.980;5.918;2024-03-17T06:38:43;9.30;76.50
43520;DHT22;46848;51.980;5.918;2024-03-17T06:41:09;9.40;76.90
43520;DHT22;46848;51.980;5.918;2024-03-17T06:43:35;9.40;76.90
43520;DHT22;46848;51.980;5.918;2024-03-17T06:46:01;9.30;77.00
43520;DHT22;46848;51.980;5.918;2024-03-17T06:48:28;9.40;77.20
43520;DHT22;46848;51.980;5.918;2024-03-17T06:50:54;9.40;77.20
43520;DHT22;46848;51.980;5.918;2024-03-17T06:53:21;9.40;77.30
43520;DHT22;46848;51.980;5.918;2024-03-17T06:55:57;9.40;77.40
43520;DHT22;46848;51.980;5.918;2024-03-17T06:58:24;9.40;77.90
43520;DHT22;46848;51.980;5.918;2024-03-17T07:00:56;9.40;77.80
43520;DHT22;46848;51.980;5.918;2024-03-17T07:03:29;9.50;77.80
43520;DHT22;46848;51.980;5.918;2024-03-17T07:05:56;9.60;77.60
43520;DHT22;46848;51.980;5.918;2024-03-17T07:08:23;9.60;77.30
43520;DHT22;46848;51.980;5.918;2024-03-17T07:10:59;9.70;77.20
43520;DHT22;46848;51.980;5.918;2024-03-17T07:13:25;9.80;77.00
43520;DHT22;46848;51.980;5.918;2024-03-17T07:15:51;9.90;76.80
43520;DHT22;46848;51.980;5.918;2024-03-17T07:18:16;10.00;76.60
43520;DHT22;46848;51.980;5.918;2024-03-17T07:20:42;10.00;76.40
43520;DHT22;46848;51.980;5.918;2024-03-17T07:23:07;10.10;76.20
43520;DHT22;46848;51.980;5.918;2024-03-17T07:25:33;10.20;76.00
43520;DHT22;46848;51.980;5.918;2024-03-17T07:27:59;10.30;75.90
43520;DHT22;46848;51.980;5.918;2024-03-17T07:30:24;10.30;75.50
43520;DHT22;46848;51.980;5.918;2024-03-17T07:32:50;10.30;75.40
43520;DHT22;46848;51.980;5.918;2024-03-17T07:35:15;10.30;75.30
43520;DHT22;46848;51.980;5.918;2024-03-17T07:37:41;10.30;75.20
43520;DHT22;46848;51.980;5.918;2024-03-17T07:40:07;10.40;75.20
43520;DHT22;46848;51.980;5.918;2024-03-17T07:42:33;10.40;75.70
43520;DHT22;46848;51.980;5.918;2024-03-17T07:44:59;10.50;75.20
43520;DHT22;46848;51.980;5.918;2024-03-17T07:47:25;10.80;75.10
43520;DHT22;46848;51.980;5.918;2024-03-17T07:49:50;11.00;74.70
43520;DHT22;46848;51.980;5.918;2024-03-17T07:52:16;11.10;74.20
43520;DHT22;46848;51.980;5.918;2024-03-17T07:54:42;11.30;74.40
43520;DHT22;46848;51.980;5.918;2024-03-17T07:57:08;11.40;73.60
43520;DHT22;46848;51.980;5.918;2024-03-17T07:59:34;11.60;73.20
43520;DHT22;46848;51.980;5.918;2024-03-17T08:01:59;11.60;73.00
43520;DHT22;46848;51.980;5.918;2024-03-17T08:04:25;11.80;72.90
43520;DHT22;46848;51.980;5.918;2024-03-17T08:06:51;11.90;72.10
43520;DHT22;46848;51.980;5.918;2024-03-17T08:09:16;11.90;71.30
43520;DHT22;46848;51.980;5.918;2024-03-17T08:11:43;12.00;71.40
43520;DHT22;46848;51.980;5.918;2024-03-17T08:14:12;12.00;70.80
43520;DHT22;46848;51.980;5.918;2024-03-17T08:16:40;12.10;70.40
43520;DHT22;46848;51.980;5.918;2024-03-17T08:19:06;12.10;69.90
43520;DHT22;46848;51.980;5.918;2024-03-17T08:21:32;12.10;70.20
43520;DHT22;46848;51.980;5.918;2024-03-17T08:23:58;12.10;70.00
43520;DHT22;46848;51.980;5.918;2024-03-17T08:26:23;12.20;69.80
43520;DHT22;46848;51.980;5.918;2024-03-17T08:28:49;12.30;69.40
43520;DHT22;46848;51.980;5.918;2024-03-17T08:31:14;12.30;68.40
43520;DHT22;46848;51.980;5.918;2024-03-17T08:33:43;12.30;68.90
43520;DHT22;46848;51.980;5.918;2024-03-17T08:36:09;12.30;68.80
43520;DHT22;46848;51.980;5.918;2024-03-17T08:38:36;12.40;68.90
43520;DHT22;46848;51.980;5.918;2024-03-17T08:41:07;12.50;68.40
43520;DHT22;46848;51.980;5.918;2024-03-17T08:43:34;12.50;68.60
43520;DHT22;46848;51.980;5.918;2024-03-17T08:46:04;12.70;68.80
43520;DHT22;46848;51.980;5.918;2024-03-17T08:48:33;12.80;67.50
43520;DHT22;46848;51.980;5.918;2024-03-17T08:51:00;12.80;68.20
43520;DHT22;46848;51.980;5.918;2024-03-17T08:53:26;12.90;68.50
43520;DHT22;46848;51.980;5.918;2024-03-17T08:55:52;13.00;68.30
43520;DHT22;46848;51.980;5.918;2024-03-17T08:58:19;13.00;67.80
43520;DHT22;46848;51.980;5.918;2024-03-17T09:00:44;13.00;67.90
43520;DHT22;46848;51.980;5.918;2024-03-17T09:03:10;12.90;67.30
43520;DHT22;46848;51.980;5.918;2024-03-17T09:05:37;12.90;67.60
43520;DHT22;46848;51.980;5.918;2024-03-17T09:08:04;12.90;67.90
43520;DHT22;46848;51.980;5.918;2024-03-17T09:10:29;12.90;68.10
43520;DHT22;46848;51.980;5.918;2024-03-17T09:12:55;12.90;67.70
43520;DHT22;46848;51.980;5.918;2024-03-17T09:15:20;13.00;67.90
43520;DHT22;46848;51.980;5.918;2024-03-17T09:17:46;13.00;67.60
43520;DHT22;46848;51.980;5.918;2024-03-17T09:20:13;12.90;67.40
43520;DHT22;46848;51.980;5.918;2024-03-17T09:22:40;12.80;67.20
43520;DHT22;46848;51.980;5.918;2024-03-17T09:25:08;12.80;67.10
43520;DHT22;46848;51.980;5.918;2024-03-17T09:27:34;12.80;66.90
43520;DHT22;46848;51.980;5.918;2024-03-17T09:30:03;12.80;67.50
43520;DHT22;46848;51.980;5.918;2024-03-17T09:32:30;12.80;66.70
43520;DHT22;46848;51.980;5.918;2024-03-17T09:34:56;12.80;67.00
43520;DHT22;46848;51.980;5.918;2024-03-17T09:37:22;12.90;67.10
43520;DHT22;46848;51.980;5.918;2024-03-17T09:39:47;13.00;67.30
43520;DHT22;46848;51.980;5.918;2024-03-17T09:42:18;13.00;67.00
43520;DHT22;46848;51.980;5.918;2024-03-17T09:44:48;12.90;65.60
43520;DHT22;46848;51.980;5.918;2024-03-17T09:47:19;13.00;66.40
43520;DHT22;46848;51.980;5.918;2024-03-17T09:49:48;13.00;66.70
43520;DHT22;46848;51.980;5.918;2024-03-17T09:52:22;13.00;66.40
43520;DHT22;46848;51.980;5.918;2024-03-17T09:55:15;13.00;66.70
43520;DHT22;46848;51.980;5.918;2024-03-17T09:57:40;12.90;66.60
43520;DHT22;46848;51.980;5.918;2024-03-17T10:00:12;12.90;67.20
43520;DHT22;46848;51.980;5.918;2024-03-17T10:02:45;12.90;67.30
43520;DHT22;46848;51.980;5.918;2024-03-17T10:05:22;12.90;67.70
43520;DHT22;46848;51.980;5.918;2024-03-17T10:07:48;12.90;67.80
43520;DHT22;46848;51.980;5.918;2024-03-17T10:10:18;12.90;67.20
43520;DHT22;46848;51.980;5.918;2024-03-17T10:12:49;12.90;67.60
43520;DHT22;46848;51.980;5.918;2024-03-17T10:15:16;12.90;67.30
43520;DHT22;46848;51.980;5.918;2024-03-17T10:17:43;12.90;67.40
43520;DHT22;46848;51.980;5.918;2024-03-17T10:20:19;12.90;67.50
43520;DHT22;46848;51.980;5.918;2024-03-17T10:25:27;13.00;67.80
43520;DHT22;46848;51.980;5.918;2024-03-17T10:27:54;13.10;67.70
43520;DHT22;46848;51.980;5.918;2024-03-17T10:30:20;13.10;67.90
43520;DHT22;46848;51.980;5.918;2024-03-17T10:32:52;13.20;67.70
43520;DHT22;46848;51.980;5.918;2024-03-17T10:37:59;13.20;67.40
43520;DHT22;46848;51.980;5.918;2024-03-17T10:40:26;13.30;67.50
43520;DHT22;46848;51.980;5.918;2024-03-17T10:42:52;13.20;67.60
43520;DHT22;46848;51.980;5.918;2024-03-17T10:45:17;13.30;67.50
43520;DHT22;46848;51.980;5.918;2024-03-17T10:47:47;13.30;67.80
43520;DHT22;46848;51.980;5.918;2024-03-17T10:50:17;13.40;67.40
43520;DHT22;46848;51.980;5.918;2024-03-17T10:52:45;13.40;67.50
43520;DHT22;46848;51.980;5.918;2024-03-17T10:55:46;13.40;67.20
43520;DHT22;46848;51.980;5.918;2024-03-17T10:58:23;13.50;67.40
43520;DHT22;46848;51.980;5.918;2024-03-17T11:00:56;13.50;67.30
43520;DHT22;46848;51.980;5.918;2024-03-17T11:03:22;13.60;67.00
43520;DHT22;46848;51.980;5.918;2024-03-17T11:05:50;13.60;67.00
43520;DHT22;46848;51.980;5.918;2024-03-17T11:08:17;13.60;67.00
43520;DHT22;46848;51.980;5.918;2024-03-17T11:10:50;13.50;66.70
43520;DHT22;46848;51.980;5.918;2024-03-17T11:13:26;13.50;66.80
43520;DHT22;46848;51.980;5.918;2024-03-17T11:15:52;13.50;67.10
43520;DHT22;46848;51.980;5.918;2024-03-17T11:20:59;13.60;67.20
43520;DHT22;46848;51.980;5.918;2024-03-17T11:23:27;13.60;67.30
43520;DHT22;46848;51.980;5.918;2024-03-17T11:25:54;13.60;67.40
43520;DHT22;46848;51.980;5.918;2024-03-17T11:33:58;13.50;67.20
43520;DHT22;46848;51.980;5.918;2024-03-17T11:39:08;13.50;67.50
43520;DHT22;46848;51.980;5.918;2024-03-17T11:41:46;13.60;67.60
43520;DHT22;46848;51.980;5.918;2024-03-17T11:46:55;13.60;67.40
43520;DHT22;46848;51.980;5.918;2024-03-17T11:49:27;13.60;67.60
43520;DHT22;46848;51.980;5.918;2024-03-17T11:52:00;13.60;67.60
43520;DHT22;46848;51.980;5.918;2024-03-17T11:54:34;13.60;67.80
43520;DHT22;46848;51.980;5.918;2024-03-17T11:59:27;13.60;67.70
43520;DHT22;46848;51.980;5.918;2024-03-17T12:01:53;13.60;67.70
43520;DHT22;46848;51.980;5.918;2024-03-17T12:04:21;13.70;67.80
43520;DHT22;46848;51.980;5.918;2024-03-17T12:06:49;13.70;67.30
43520;DHT22;46848;51.980;5.918;2024-03-17T12:09:26;13.70;67.20
43520;DHT22;46848;51.980;5.918;2024-03-17T12:12:02;13.60;67.20
43520;DHT22;46848;51.980;5.918;2024-03-17T12:14:36;13.60;67.20
43520;DHT22;46848;51.980;5.918;2024-03-17T12:17:04;13.60;67.20
43520;DHT22;46848;51.980;5.918;2024-03-17T12:19:30;13.50;67.30
43520;DHT22;46848;51.980;5.918;2024-03-17T12:21:58;13.50;67.60
43520;DHT22;46848;51.980;5.918;2024-03-17T12:24:31;13.50;67.60
43520;DHT22;46848;51.980;5.918;2024-03-17T12:26:58;13.60;67.70
43520;DHT22;46848;51.980;5.918;2024-03-17T12:29:33;13.60;67.60
43520;DHT22;46848;51.980;5.918;2024-03-17T12:32:05;13.60;67.40
43520;DHT22;46848;51.980;5.918;2024-03-17T12:34:34;13.60;67.70
43520;DHT22;46848;51.980;5.918;2024-03-17T12:37:00;13.60;67.70
43520;DHT22;46848;51.980;5.918;2024-03-17T12:39:30;13.70;67.60
43520;DHT22;46848;51.980;5.918;2024-03-17T12:42:16;13.70;67.10
43520;DHT22;46848;51.980;5.918;2024-03-17T12:44:56;13.70;67.30
43520;DHT22;46848;51.980;5.918;2024-03-17T12:47:23;13.80;67.10
43520;DHT22;46848;51.980;5.918;2024-03-17T12:49:54;13.80;67.10
43520;DHT22;46848;51.980;5.918;2024-03-17T12:52:22;13.80;67.10
43520;DHT22;46848;51.980;5.918;2024-03-17T12:55:04;13.80;67.20
43520;DHT22;46848;51.980;5.918;2024-03-17T12:57:53;13.80;67.00
43520;DHT22;46848;51.980;5.918;2024-03-17T13:01:04;13.90;67.00
43520;DHT22;46848;51.980;5.918;2024-03-17T13:05:59;13.90;67.00
43520;DHT22;46848;51.980;5.918;2024-03-17T13:08:26;13.90;67.00
43520;DHT22;46848;51.980;5.918;2024-03-17T13:10:52;13.90;67.00
43520;DHT22;46848;51.980;5.918;2024-03-17T13:13:17;13.90;66.90
43520;DHT22;46848;51.980;5.918;2024-03-17T13:15:43;13.90;66.90
43520;DHT22;46848;51.980;5.918;2024-03-17T13:18:11;13.90;67.30
43520;DHT22;46848;51.980;5.918;2024-03-17T13:20:40;13.90;67.30
43520;DHT22;46848;51.980;5.918;2024-03-17T13:23:07;13.90;67.40
43520;DHT22;46848;51.980;5.918;2024-03-17T13:25:33;14.00;67.40
43520;DHT22;46848;51.980;5.918;2024-03-17T13:28:01;13.90;67.40
43520;DHT22;46848;51.980;5.918;2024-03-17T13:30:27;14.00;67.50
43520;DHT22;46848;51.980;5.918;2024-03-17T13:32:54;14.00;67.50
43520;DHT22;46848;51.980;5.918;2024-03-17T13:35:26;14.00;67.40
43520;DHT22;46848;51.980;5.918;2024-03-17T13:37:52;14.10;67.50
43520;DHT22;46848;51.980;5.918;2024-03-17T13:40:20;14.10;67.60
43520;DHT22;46848;51.980;5.918;2024-03-17T13:42:46;14.00;67.70
43520;DHT22;46848;51.980;5.918;2024-03-17T13:45:16;14.00;67.80
43520;DHT22;46848;51.980;5.918;2024-03-17T13:47:46;14.00;67.80
43520;DHT22;46848;51.980;5.918;2024-03-17T13:50:12;14.10;67.90
43520;DHT22;46848;51.980;5.918;2024-03-17T13:52:42;14.10;67.80
43520;DHT22;46848;51.980;5.918;2024-03-17T13:55:16;14.20;67.90
43520;DHT22;46848;51.980;5.918;2024-03-17T13:57:47;14.10;68.50
43520;DHT22;46848;51.980;5.918;2024-03-17T14:00:14;14.10;67.90
43520;DHT22;46848;51.980;5.918;2024-03-17T14:02:46;14.10;68.00
43520;DHT22;46848;51.980;5.918;2024-03-17T14:05:13;14.10;68.10
43520;DHT22;46848;51.980;5.918;2024-03-17T14:07:39;14.10;68.10
43520;DHT22;46848;51.980;5.918;2024-03-17T14:10:05;14.10;68.20
43520;DHT22;46848;51.980;5.918;2024-03-17T14:12:31;14.10;68.30
43520;DHT22;46848;51.980;5.918;2024-03-17T14:14:57;14.00;68.40
43520;DHT22;46848;51.980;5.918;2024-03-17T14:17:22;14.00;68.40
43520;DHT22;46848;51.980;5.918;2024-03-17T14:19:48;14.00;68.50
43520;DHT22;46848;51.980;5.918;2024-03-17T14:22:13;14.10;68.60
43520;DHT22;46848;51.980;5.918;2024-03-17T14:24:39;14.10;68.50
43520;DHT22;46848;51.980;5.918;2024-03-17T14:27:06;14.10;68.50
43520;DHT22;46848;51.980;5.918;2024-03-17T14:29:32;14.10;68.50
43520;DHT22;46848;51.980;5.918;2024-03-17T14:31:57;14.10;68.60
43520;DHT22;46848;51.980;5.918;2024-03-17T14:34:23;14.10;68.60
43520;DHT22;46848;51.980;5.918;2024-03-17T14:36:48;14.10;68.70
43520;DHT22;46848;51.980;5.918;2024-03-17T14:39:14;14.10;68.70
43520;DHT22;46848;51.980;5.918;2024-03-17T14:41:39;14.20;68.70
43520;DHT22;46848;51.980;5.918;2024-03-17T14:44:05;14.20;68.50
43520;DHT22;46848;51.980;5.918;2024-03-17T14:46:31;14.10;68.50
43520;DHT22;46848;51.980;5.918;2024-03-17T14:48:57;14.20;68.70
43520;DHT22;46848;51.980;5.918;2024-03-17T14:51:22;14.20;68.70
43520;DHT22;46848;51.980;5.918;2024-03-17T14:53:49;14.30;68.80
43520;DHT22;46848;51.980;5.918;2024-03-17T14:56:17;14.30;68.70
43520;DHT22;46848;51.980;5.918;2024-03-17T14:58:43;14.40;68.70
43520;DHT22;46848;51.980;5.918;2024-03-17T15:01:09;14.40;68.40
43520;DHT22;46848;51.980;5.918;2024-03-17T15:03:35;14.40;68.50
43520;DHT22;46848;51.980;5.918;2024-03-17T15:06:01;14.50;68.50
43520;DHT22;46848;51.980;5.918;2024-03-17T15:08:29;14.50;68.40
43520;DHT22;46848;51.980;5.918;2024-03-17T15:10:56;14.50;68.40
43520;DHT22;46848;51.980;5.918;2024-03-17T15:13:22;14.50;68.30
43520;DHT22;46848;51.980;5.918;2024-03-17T15:15:49;14.50;68.40
43520;DHT22;46848;51.980;5.918;2024-03-17T15:18:14;14.50;68.30
43520;DHT22;46848;51.980;5.918;2024-03-17T15:20:41;14.50;68.90
43520;DHT22;46848;51.980;5.918;2024-03-17T15:23:07;14.50;68.30
43520;DHT22;46848;51.980;5.918;2024-03-17T15:25:33;14.50;68.20
43520;DHT22;46848;51.980;5.918;2024-03-17T15:27:58;14.50;68.40
43520;DHT22;46848;51.980;5.918;2024-03-17T15:30:26;14.60;68.30
43520;DHT22;46848;51.980;5.918;2024-03-17T15:32:55;14.60;68.20
43520;DHT22;46848;51.980;5.918;2024-03-17T15:35:22;14.60;68.00
43520;DHT22;46848;51.980;5.918;2024-03-17T15:37:48;14.60;67.90
43520;DHT22;46848;51.980;5.918;2024-03-17T15:40:14;14.60;67.80
43520;DHT22;46848;51.980;5.918;2024-03-17T15:42:44;14.60;67.70
43520;DHT22;46848;51.980;5.918;2024-03-17T15:45:10;14.60;67.60
43520;DHT22;46848;51.980;5.918;2024-03-17T15:47:36;14.60;67.60
43520;DHT22;46848;51.980;5.918;2024-03-17T15:50:01;14.70;67.70
43520;DHT22;46848;51.980;5.918;2024-03-17T15:52:27;14.70;67.70
43520;DHT22;46848;51.980;5.918;2024-03-17T15:54:54;14.70;67.70
43520;DHT22;46848;51.980;5.918;2024-03-17T15:57:20;14.70;67.70
43520;DHT22;46848;51.980;5.918;2024-03-17T15:59:46;14.60;67.50
43520;DHT22;46848;51.980;5.918;2024-03-17T16:02:11;14.60;67.70